createdAt,value
2023-12-24T00:01:16.914Z,6.65
2023-12-24T00:03:43.765Z,6.70
2023-12-24T00:06:10.536Z,6.55
2023-12-24T00:08:37.900Z,6.88
2023-12-24T00:11:06.471Z,6.89
2023-12-24T00:13:33.166Z,6.89
2023-12-24T00:15:59.785Z,6.86
2023-12-24T00:18:26.446Z,6.90
2023-12-24T00:20:52.983Z,6.88
2023-12-24T00:23:19.621Z,6.90
2023-12-24T00:25:46.482Z,6.91
2023-12-24T00:28:13.113Z,6.92
2023-12-24T00:30:39.774Z,6.82
2023-12-24T00:33:06.404Z,6.76
2023-12-24T00:35:35.137Z,6.93
2023-12-24T00:38:01.756Z,6.69
2023-12-24T00:40:28.281Z,6.97
2023-12-24T00:42:54.978Z,6.97
2023-12-24T00:45:21.724Z,6.92
2023-12-24T00:47:48.779Z,6.86
2023-12-24T00:50:15.551Z,6.85
2023-12-24T00:52:42.021Z,6.92
2023-12-24T00:55:08.778Z,7.14
2023-12-24T00:57:37.468Z,6.95
2023-12-24T01:00:07.826Z,6.88
2023-12-24T01:02:34.632Z,7.22
2023-12-24T01:05:01.339Z,6.99
2023-12-24T01:07:27.974Z,7.28
2023-12-24T01:09:54.438Z,7.24
2023-12-24T01:12:20.919Z,7.35
2023-12-24T01:14:47.434Z,6.98
2023-12-24T01:17:14.910Z,7.35
2023-12-24T01:19:41.872Z,7.43
2023-12-24T01:22:08.346Z,7.46
2023-12-24T01:24:34.784Z,7.46
2023-12-24T01:27:01.241Z,7.52
2023-12-24T01:29:27.980Z,7.53
2023-12-24T01:31:54.592Z,7.20
2023-12-24T01:34:21.128Z,7.63
2023-12-24T01:36:47.604Z,7.69
2023-12-24T01:39:14.555Z,7.76
2023-12-24T01:41:41.083Z,7.85
2023-12-24T01:44:07.620Z,7.97
2023-12-24T01:46:34.342Z,8.01
2023-12-24T01:49:03.955Z,8.04
2023-12-24T01:51:32.782Z,8.47
2023-12-24T01:54:03.005Z,8.64
2023-12-24T01:56:31.966Z,8.86
2023-12-24T01:59:02.646Z,9.06
2023-12-24T02:01:29.414Z,8.85
2023-12-24T02:03:56.559Z,9.37
2023-12-24T02:06:25.395Z,9.51
2023-12-24T02:08:52.050Z,9.76
2023-12-24T02:11:18.819Z,9.80
2023-12-24T02:13:45.676Z,10.00
2023-12-24T02:16:15.971Z,10.11
2023-12-24T02:18:42.987Z,10.17
2023-12-24T02:21:09.706Z,10.32
2023-12-24T02:23:36.305Z,10.38
2023-12-24T02:26:12.565Z,10.35
2023-12-24T02:28:43.576Z,10.52
2023-12-24T02:31:14.010Z,10.56
2023-12-24T02:33:42.592Z,10.49
2023-12-24T02:36:11.164Z,10.39
2023-12-24T02:38:37.889Z,10.68
2023-12-24T02:41:05.408Z,10.68
2023-12-24T02:43:32.845Z,10.43
2023-12-24T02:46:02.874Z,10.78
2023-12-24T02:48:29.432Z,10.79
2023-12-24T02:50:55.950Z,10.80
2023-12-24T02:53:22.455Z,10.82
2023-12-24T02:55:48.953Z,10.68
2023-12-24T02:58:17.078Z,10.88
2023-12-24T03:00:43.702Z,10.58
2023-12-24T03:03:10.189Z,10.88
2023-12-24T03:05:36.748Z,10.86
2023-12-24T03:08:03.464Z,10.88
2023-12-24T03:10:29.962Z,10.91
2023-12-24T03:12:56.443Z,10.85
2023-12-24T03:15:22.909Z,10.84
2023-12-24T03:17:55.792Z,10.84
2023-12-24T03:20:22.416Z,10.65
2023-12-24T03:22:49.016Z,10.88
2023-12-24T03:25:15.619Z,10.94
2023-12-24T03:27:42.095Z,10.86
2023-12-24T03:30:09.143Z,10.97
2023-12-24T03:32:35.762Z,10.97
2023-12-24T03:35:02.416Z,10.98
2023-12-24T03:37:29.291Z,10.91
2023-12-24T03:39:55.930Z,10.93
2023-12-24T03:42:22.385Z,11.00
2023-12-24T03:44:48.904Z,11.00
2023-12-24T03:47:15.430Z,10.98
2023-12-24T03:49:41.972Z,10.96
2023-12-24T03:52:08.447Z,11.00
2023-12-24T03:54:38.360Z,10.89
2023-12-24T03:57:05.081Z,11.02
2023-12-24T03:59:31.716Z,10.94
2023-12-24T04:01:58.374Z,10.82
2023-12-24T04:04:24.949Z,11.00
2023-12-24T04:06:51.510Z,10.89
2023-12-24T04:09:18.157Z,11.05
2023-12-24T04:11:44.709Z,10.86
2023-12-24T04:14:11.271Z,11.07
2023-12-24T04:16:37.780Z,11.05
2023-12-24T04:19:04.439Z,11.04
2023-12-24T04:21:34.163Z,11.03
2023-12-24T04:24:01.185Z,11.04
2023-12-24T04:26:27.732Z,11.05
2023-12-24T04:28:54.337Z,11.03
2023-12-24T04:31:20.920Z,11.00
2023-12-24T04:33:47.429Z,11.00
2023-12-24T04:36:22.976Z,11.03
2023-12-24T04:38:49.674Z,11.01
2023-12-24T04:41:20.184Z,10.77
2023-12-24T04:43:46.921Z,11.06
2023-12-24T04:46:13.920Z,11.02
2023-12-24T04:48:41.207Z,11.08
2023-12-24T04:51:07.764Z,11.06
2023-12-24T04:53:34.568Z,11.04
2023-12-24T04:56:01.155Z,11.07
2023-12-24T04:58:27.639Z,11.02
2023-12-24T05:00:54.117Z,11.05
2023-12-24T05:03:20.748Z,11.10
2023-12-24T05:05:47.340Z,11.11
2023-12-24T05:08:13.990Z,11.03
2023-12-24T05:10:40.645Z,11.10
2023-12-24T05:13:07.236Z,11.05
2023-12-24T05:15:33.758Z,11.07
2023-12-24T05:18:00.375Z,11.09
2023-12-24T05:20:26.979Z,11.09
2023-12-24T05:22:53.684Z,11.10
2023-12-24T05:25:21.720Z,11.11
2023-12-24T05:27:48.231Z,11.12
2023-12-24T05:30:14.958Z,11.07
2023-12-24T05:32:41.663Z,11.13
2023-12-24T05:35:08.342Z,11.12
2023-12-24T05:37:34.778Z,11.14
2023-12-24T05:40:01.596Z,11.16
2023-12-24T05:42:28.081Z,11.13
2023-12-24T05:44:54.606Z,11.13
2023-12-24T05:47:21.141Z,11.08
2023-12-24T05:49:47.710Z,11.12
2023-12-24T05:52:14.259Z,11.14
2023-12-24T05:54:40.734Z,11.12
2023-12-24T05:57:07.740Z,11.06
2023-12-24T05:59:34.221Z,11.14
2023-12-24T06:02:00.717Z,11.11
2023-12-24T06:04:27.147Z,11.17
2023-12-24T06:06:53.625Z,11.17
2023-12-24T06:09:20.116Z,11.16
2023-12-24T06:11:46.855Z,11.16
2023-12-24T06:14:13.367Z,10.96
2023-12-24T06:16:39.809Z,11.10
2023-12-24T06:19:06.810Z,11.16
2023-12-24T06:21:33.526Z,11.14
2023-12-24T06:23:59.952Z,11.09
2023-12-24T06:26:26.465Z,11.10
2023-12-24T06:28:53.026Z,11.17
2023-12-24T06:31:25.910Z,11.12
2023-12-24T06:33:52.602Z,11.11
2023-12-24T06:36:19.433Z,11.15
2023-12-24T06:38:46.619Z,11.18
2023-12-24T06:41:13.117Z,10.93
2023-12-24T06:43:40.053Z,11.17
2023-12-24T06:46:13.385Z,11.15
2023-12-24T06:48:40.788Z,11.15
2023-12-24T06:51:07.526Z,10.90
2023-12-24T06:53:34.916Z,11.02
2023-12-24T06:56:01.821Z,11.19
2023-12-24T06:58:28.277Z,11.06
2023-12-24T07:00:54.774Z,11.18
2023-12-24T07:03:21.201Z,11.19
2023-12-24T07:05:47.788Z,11.23
2023-12-24T07:08:14.391Z,11.24
2023-12-24T07:10:40.921Z,10.99
2023-12-24T07:13:07.390Z,11.27
2023-12-24T07:15:39.393Z,11.25
2023-12-24T07:18:06.092Z,11.30
2023-12-24T07:20:32.762Z,11.20
2023-12-24T07:23:02.286Z,11.29
2023-12-24T07:25:29.609Z,11.31
2023-12-24T07:27:56.078Z,11.36
2023-12-24T07:30:22.608Z,11.36
2023-12-24T07:32:49.669Z,11.36
2023-12-24T07:35:17.673Z,11.40
2023-12-24T07:37:44.191Z,11.37
2023-12-24T07:40:11.307Z,11.30
2023-12-24T07:42:38.562Z,11.38
2023-12-24T07:45:05.707Z,11.37
2023-12-24T07:47:32.953Z,11.39
2023-12-24T07:49:59.629Z,11.42
2023-12-24T07:52:26.435Z,11.47
2023-12-24T07:54:53.493Z,11.51
2023-12-24T07:57:20.446Z,11.39
2023-12-24T07:59:47.009Z,11.49
2023-12-24T08:02:13.885Z,11.49
2023-12-24T08:04:42.085Z,11.49
2023-12-24T08:07:08.719Z,11.53
2023-12-24T08:09:35.309Z,11.38
2023-12-24T08:12:02.086Z,11.50
2023-12-24T08:14:29.426Z,11.38
2023-12-24T08:16:55.863Z,11.20
2023-12-24T08:19:22.528Z,11.50
2023-12-24T08:21:49.124Z,11.50
2023-12-24T08:24:15.953Z,11.23
2023-12-24T08:26:43.208Z,11.56
2023-12-24T08:29:09.861Z,11.57
2023-12-24T08:31:36.413Z,11.57
2023-12-24T08:34:03.950Z,11.28
2023-12-24T08:36:30.616Z,11.35
2023-12-24T08:38:57.109Z,11.28
2023-12-24T08:41:23.759Z,11.57
2023-12-24T08:43:50.265Z,11.69
2023-12-24T08:46:17.975Z,11.50
2023-12-24T08:48:44.512Z,11.63
2023-12-24T08:51:11.052Z,11.65
2023-12-24T08:53:37.660Z,11.58
2023-12-24T08:56:04.621Z,11.63
2023-12-24T08:58:31.267Z,11.69
2023-12-24T09:00:57.711Z,11.73
2023-12-24T09:03:24.206Z,11.65
2023-12-24T09:05:50.781Z,11.73
2023-12-24T09:08:17.996Z,11.55
2023-12-24T09:10:44.605Z,11.76
2023-12-24T09:13:11.134Z,11.71
2023-12-24T09:15:37.682Z,11.79
2023-12-24T09:18:04.920Z,11.83
2023-12-24T09:20:31.737Z,11.82
2023-12-24T09:22:58.223Z,11.84
2023-12-24T09:25:24.698Z,11.80
2023-12-24T09:27:51.161Z,11.87
2023-12-24T09:30:17.754Z,11.69
2023-12-24T09:32:44.701Z,11.67
2023-12-24T09:35:11.382Z,11.94
2023-12-24T09:37:38.046Z,11.94
2023-12-24T09:40:05.104Z,11.84
2023-12-24T09:42:31.631Z,12.02
2023-12-24T09:44:58.307Z,12.06
2023-12-24T09:47:24.902Z,11.88
2023-12-24T09:49:51.438Z,12.09
2023-12-24T09:52:17.900Z,12.09
2023-12-24T09:54:44.765Z,12.09
2023-12-24T09:57:11.223Z,12.01
2023-12-24T09:59:38.139Z,12.11
2023-12-24T10:02:04.996Z,12.10
2023-12-24T10:04:31.577Z,11.94
2023-12-24T10:06:59.613Z,12.18
2023-12-24T10:09:43.047Z,12.26
2023-12-24T10:12:12.386Z,12.20
2023-12-24T10:14:40.943Z,12.27
2023-12-24T10:17:08.684Z,12.25
2023-12-24T10:19:36.123Z,12.35
2023-12-24T10:22:10.265Z,12.35
2023-12-24T10:24:41.992Z,12.35
2023-12-24T10:27:11.180Z,12.30
2023-12-24T10:29:40.611Z,12.38
2023-12-24T10:32:10.956Z,12.40
2023-12-24T10:34:38.723Z,12.08
2023-12-24T10:37:19.281Z,12.42
2023-12-24T10:39:46.442Z,12.45
2023-12-24T10:42:12.917Z,12.40
2023-12-24T10:44:40.548Z,12.46
2023-12-24T10:47:08.962Z,12.47
2023-12-24T10:49:35.856Z,12.49
2023-12-24T10:52:02.446Z,12.28
2023-12-24T10:54:29.126Z,12.42
2023-12-24T10:57:20.052Z,12.54
2023-12-24T11:00:08.380Z,12.52
2023-12-24T11:02:37.351Z,12.55
2023-12-24T11:05:04.657Z,12.55
2023-12-24T11:07:34.202Z,12.62
2023-12-24T11:10:01.775Z,12.65
2023-12-24T11:12:35.876Z,12.50
2023-12-24T11:15:08.174Z,12.60
2023-12-24T11:17:40.665Z,12.59
2023-12-24T11:20:22.195Z,12.70
2023-12-24T11:23:10.602Z,12.69
2023-12-24T11:25:47.479Z,12.55
2023-12-24T11:28:26.022Z,12.74
2023-12-24T11:30:52.633Z,12.72
2023-12-24T11:33:35.202Z,12.78
2023-12-24T11:36:05.238Z,12.78
2023-12-24T11:38:34.729Z,12.79
2023-12-24T11:41:07.989Z,12.77
2023-12-24T11:43:35.369Z,12.75
2023-12-24T11:46:02.162Z,12.80
2023-12-24T11:48:30.230Z,12.84
2023-12-24T11:51:04.742Z,12.80
2023-12-24T11:53:35.648Z,12.83
2023-12-24T11:56:18.901Z,12.89
2023-12-24T11:58:51.360Z,12.92
2023-12-24T12:01:23.357Z,12.90
2023-12-24T12:03:58.856Z,12.91
2023-12-24T12:06:27.295Z,12.89
2023-12-24T12:08:54.042Z,12.85
2023-12-24T12:11:20.940Z,12.93
2023-12-24T12:13:47.817Z,12.76
2023-12-24T12:16:14.450Z,12.96
2023-12-24T12:18:41.058Z,12.92
2023-12-24T12:21:11.383Z,12.88
2023-12-24T12:23:39.808Z,12.81
2023-12-24T12:26:07.315Z,13.00
2023-12-24T12:28:35.692Z,12.99
2023-12-24T12:31:02.981Z,12.98
2023-12-24T12:33:29.841Z,12.96
2023-12-24T12:35:56.972Z,12.98
2023-12-24T12:38:24.171Z,13.01
2023-12-24T12:40:53.438Z,12.87
2023-12-24T12:43:21.875Z,13.00
2023-12-24T12:45:52.862Z,13.06
2023-12-24T12:48:19.967Z,13.20
2023-12-24T12:50:46.926Z,13.13
2023-12-24T12:53:22.714Z,13.09
2023-12-24T12:55:49.227Z,13.02
2023-12-24T12:58:15.823Z,13.11
2023-12-24T13:00:42.356Z,13.13
2023-12-24T13:03:09.494Z,13.02
2023-12-24T13:05:36.269Z,13.16
2023-12-24T13:08:14.668Z,13.16
2023-12-24T13:10:41.575Z,13.01
2023-12-24T13:13:17.413Z,13.17
2023-12-24T13:15:44.814Z,13.02
2023-12-24T13:18:30.722Z,13.15
2023-12-24T13:21:02.233Z,13.18
2023-12-24T13:23:29.792Z,13.12
2023-12-24T13:25:56.688Z,13.19
2023-12-24T13:28:25.122Z,13.11
2023-12-24T13:30:52.011Z,13.19
2023-12-24T13:33:21.899Z,13.17
2023-12-24T13:35:48.904Z,13.20
2023-12-24T13:38:20.948Z,13.24
2023-12-24T13:40:48.145Z,13.21
2023-12-24T13:43:14.824Z,13.22
2023-12-24T13:45:41.526Z,13.26
2023-12-24T13:48:13.335Z,13.27
2023-12-24T13:50:41.051Z,13.31
2023-12-24T13:53:18.964Z,13.28
2023-12-24T13:55:54.157Z,13.32
2023-12-24T13:58:20.588Z,13.37
2023-12-24T14:00:47.213Z,13.38
2023-12-24T14:03:13.813Z,13.37
2023-12-24T14:05:41.649Z,13.39
2023-12-24T14:08:08.713Z,13.27
2023-12-24T14:10:35.578Z,13.37
2023-12-24T14:13:02.417Z,13.43
2023-12-24T14:15:28.832Z,13.42
2023-12-24T14:17:55.477Z,13.42
2023-12-24T14:20:23.001Z,13.46
2023-12-24T14:22:49.680Z,13.42
2023-12-24T14:25:16.308Z,13.48
2023-12-24T14:27:42.794Z,13.41
2023-12-24T14:30:09.527Z,13.28
2023-12-24T14:32:36.153Z,13.14
2023-12-24T14:35:03.617Z,13.41
2023-12-24T14:37:30.133Z,13.55
2023-12-24T14:39:56.584Z,13.38
2023-12-24T14:42:23.039Z,13.57
2023-12-24T14:44:50.437Z,13.35
2023-12-24T14:47:19.710Z,13.50
2023-12-24T14:49:46.699Z,13.60
2023-12-24T14:52:14.060Z,13.57
2023-12-24T14:54:41.351Z,13.56
2023-12-24T14:57:07.841Z,13.59
2023-12-24T14:59:34.330Z,13.60
2023-12-24T15:02:02.297Z,13.62
2023-12-24T15:04:28.889Z,13.59
2023-12-24T15:06:57.062Z,13.63
2023-12-24T15:09:23.609Z,13.61
2023-12-24T15:11:50.497Z,13.56
2023-12-24T15:14:17.166Z,13.59
2023-12-24T15:16:43.725Z,13.59
2023-12-24T15:19:10.325Z,13.66
2023-12-24T15:21:36.979Z,13.54
2023-12-24T15:24:04.346Z,13.67
2023-12-24T15:26:33.857Z,13.68
2023-12-24T15:29:01.157Z,13.65
2023-12-24T15:31:28.823Z,13.52
2023-12-24T15:33:55.566Z,13.62
2023-12-24T15:36:22.182Z,13.60
2023-12-24T15:38:48.792Z,13.56
2023-12-24T15:41:16.816Z,13.62
2023-12-24T15:43:46.495Z,13.60
2023-12-24T15:46:13.514Z,13.53
2023-12-24T15:48:40.357Z,13.60
2023-12-24T15:51:07.888Z,13.57
2023-12-24T15:53:34.469Z,13.50
2023-12-24T15:56:01.778Z,13.62
2023-12-24T15:58:28.496Z,13.56
2023-12-24T16:00:55.089Z,13.55
2023-12-24T16:03:21.650Z,13.57
2023-12-24T16:05:48.325Z,13.57
2023-12-24T16:08:15.692Z,13.51
2023-12-24T16:10:42.367Z,13.45
2023-12-24T16:13:08.856Z,13.62
2023-12-24T16:15:37.270Z,13.49
2023-12-24T16:18:04.722Z,13.66
2023-12-24T16:20:31.374Z,13.63
2023-12-24T16:22:58.051Z,13.59
2023-12-24T16:25:27.406Z,13.54
2023-12-24T16:27:53.953Z,13.64
2023-12-24T16:30:20.938Z,13.61
2023-12-24T16:32:48.758Z,13.55
2023-12-24T16:35:15.602Z,13.64
2023-12-24T16:37:46.177Z,13.66
2023-12-24T16:40:15.282Z,13.59
2023-12-24T16:42:47.703Z,13.55
2023-12-24T16:45:19.213Z,13.71
2023-12-24T16:47:46.469Z,13.70
2023-12-24T16:50:13.188Z,13.76
2023-12-24T16:52:39.943Z,13.76
2023-12-24T16:55:07.404Z,13.50
2023-12-24T16:57:36.917Z,13.73
2023-12-24T17:00:04.841Z,13.73
2023-12-24T17:02:31.355Z,13.73
2023-12-24T17:04:57.951Z,13.76
2023-12-24T17:07:24.543Z,13.76
2023-12-24T17:09:52.230Z,13.73
2023-12-24T17:12:19.815Z,13.66
2023-12-24T17:14:47.465Z,13.74
2023-12-24T17:17:14.124Z,13.77
2023-12-24T17:19:40.885Z,13.79
2023-12-24T17:22:07.396Z,13.79
2023-12-24T17:24:33.925Z,13.84
2023-12-24T17:27:00.518Z,13.67
2023-12-24T17:29:27.548Z,13.73
2023-12-24T17:31:54.602Z,13.78
2023-12-24T17:34:22.540Z,13.79
2023-12-24T17:36:49.116Z,13.73
2023-12-24T17:39:16.229Z,13.84
2023-12-24T17:41:43.153Z,13.87
2023-12-24T17:44:09.810Z,13.86
2023-12-24T17:46:36.281Z,13.88
2023-12-24T17:49:03.027Z,13.82
2023-12-24T17:51:29.632Z,13.76
2023-12-24T17:53:56.933Z,13.90
2023-12-24T17:56:23.495Z,13.76
2023-12-24T17:58:50.102Z,13.84
2023-12-24T18:01:16.540Z,13.92
2023-12-24T18:03:43.139Z,13.90
2023-12-24T18:06:12.539Z,13.96
2023-12-24T18:08:39.110Z,13.82
2023-12-24T18:11:05.735Z,13.93
2023-12-24T18:13:32.775Z,13.97
2023-12-24T18:15:59.334Z,14.00
2023-12-24T18:18:27.086Z,13.91
2023-12-24T18:20:53.807Z,14.03
2023-12-24T18:23:20.381Z,14.03
2023-12-24T18:25:46.823Z,14.05
2023-12-24T18:28:13.658Z,13.99
2023-12-24T18:30:40.178Z,13.96
2023-12-24T18:33:07.268Z,13.75
2023-12-24T18:35:35.033Z,13.69
2023-12-24T18:38:04.757Z,13.61
2023-12-24T18:40:31.430Z,13.45
2023-12-24T18:42:57.878Z,13.16
2023-12-24T18:45:26.072Z,13.18
2023-12-24T18:47:55.800Z,13.02
2023-12-24T18:50:22.633Z,12.86
2023-12-24T18:52:49.204Z,12.78
2023-12-24T18:55:15.795Z,12.65
2023-12-24T18:57:42.937Z,12.59
2023-12-24T19:00:10.293Z,12.34
2023-12-24T19:02:37.646Z,12.43
2023-12-24T19:05:04.727Z,12.40
2023-12-24T19:07:31.237Z,12.38
2023-12-24T19:09:58.300Z,12.38
2023-12-24T19:12:24.805Z,12.38
2023-12-24T19:14:51.470Z,12.37
2023-12-24T19:17:17.997Z,12.44
2023-12-24T19:19:44.669Z,12.50
2023-12-24T19:22:11.279Z,12.59
2023-12-24T19:24:37.721Z,12.65
2023-12-24T19:27:04.938Z,12.68
2023-12-24T19:29:31.541Z,12.78
2023-12-24T19:31:58.080Z,12.87
2023-12-24T19:34:24.558Z,12.97
2023-12-24T19:36:51.108Z,12.99
2023-12-24T19:39:17.610Z,13.10
2023-12-24T19:41:44.143Z,13.14
2023-12-24T19:44:11.006Z,13.22
2023-12-24T19:46:37.485Z,13.24
2023-12-24T19:49:04.201Z,13.30
2023-12-24T19:51:30.771Z,13.12
2023-12-24T19:53:57.424Z,13.36
2023-12-24T19:56:24.192Z,13.37
2023-12-24T19:58:52.455Z,13.29
2023-12-24T20:01:25.801Z,13.41
2023-12-24T20:03:57.324Z,13.43
2023-12-24T20:06:23.995Z,13.45
2023-12-24T20:08:50.692Z,13.45
2023-12-24T20:11:17.472Z,13.44
2023-12-24T20:13:43.955Z,13.45
2023-12-24T20:16:10.485Z,13.27
2023-12-24T20:18:37.114Z,13.43
2023-12-24T20:21:03.827Z,13.44
2023-12-24T20:23:30.341Z,13.32
2023-12-24T20:25:56.865Z,13.39
2023-12-24T20:28:23.343Z,13.40
2023-12-24T20:30:49.942Z,13.38
2023-12-24T20:33:18.427Z,13.28
2023-12-24T20:35:45.141Z,13.25
2023-12-24T20:38:11.656Z,13.32
2023-12-24T20:40:38.132Z,13.31
2023-12-24T20:43:05.044Z,13.28
2023-12-24T20:45:31.481Z,13.25
2023-12-24T20:47:58.437Z,13.18
2023-12-24T20:50:24.976Z,13.18
2023-12-24T20:52:51.725Z,13.17
2023-12-24T20:55:18.418Z,13.12
2023-12-24T20:57:44.876Z,13.09
2023-12-24T21:00:12.273Z,12.95
2023-12-24T21:02:38.886Z,13.05
2023-12-24T21:05:05.981Z,13.00
2023-12-24T21:07:33.355Z,12.98
2023-12-24T21:09:59.823Z,12.97
2023-12-24T21:12:26.294Z,12.91
2023-12-24T21:14:52.878Z,12.90
2023-12-24T21:17:19.637Z,12.89
2023-12-24T21:19:46.315Z,12.78
2023-12-24T21:22:12.895Z,12.93
2023-12-24T21:24:39.411Z,12.93
2023-12-24T21:27:05.910Z,12.92
2023-12-24T21:29:32.572Z,12.81
2023-12-24T21:32:00.713Z,12.96
2023-12-24T21:34:27.285Z,13.05
2023-12-24T21:36:54.612Z,13.03
2023-12-24T21:39:24.945Z,13.12
2023-12-24T21:41:51.675Z,13.15
2023-12-24T21:44:18.375Z,13.17
2023-12-24T21:46:45.175Z,13.23
2023-12-24T21:49:12.184Z,13.22
2023-12-24T21:51:45.722Z,13.29
2023-12-24T21:54:12.316Z,13.12
2023-12-24T21:56:39.171Z,13.24
2023-12-24T21:59:05.800Z,13.17
2023-12-24T22:01:33.317Z,13.11
2023-12-24T22:04:00.257Z,13.20
2023-12-24T22:06:26.876Z,13.19
2023-12-24T22:08:53.471Z,13.13
2023-12-24T22:11:22.234Z,13.12
2023-12-24T22:13:49.175Z,13.14
2023-12-24T22:16:17.397Z,13.01
2023-12-24T22:18:44.903Z,13.02
2023-12-24T22:21:11.963Z,13.03
2023-12-24T22:23:38.505Z,13.10
2023-12-24T22:26:05.609Z,13.12
2023-12-24T22:28:33.107Z,13.13
2023-12-24T22:30:59.635Z,13.13
2023-12-24T22:33:26.385Z,13.19
2023-12-24T22:35:53.137Z,13.18
2023-12-24T22:38:19.698Z,13.27
2023-12-24T22:40:46.189Z,13.25
2023-12-24T22:43:12.689Z,13.25
2023-12-24T22:45:50.624Z,13.27
2023-12-24T22:48:18.945Z,13.31
2023-12-24T22:50:45.652Z,13.21
2023-12-24T22:53:14.508Z,13.32
2023-12-24T22:55:41.138Z,13.32
2023-12-24T22:58:07.628Z,13.33
2023-12-24T23:00:34.264Z,13.31
2023-12-24T23:03:00.927Z,13.30
2023-12-24T23:05:27.600Z,13.27
2023-12-24T23:07:54.875Z,13.22
2023-12-24T23:10:21.452Z,13.24
2023-12-24T23:12:48.516Z,13.25
2023-12-24T23:15:15.137Z,13.17
2023-12-24T23:17:47.579Z,13.22
2023-12-24T23:20:14.322Z,13.06
2023-12-24T23:22:41.050Z,13.09
2023-12-24T23:25:07.913Z,13.11
2023-12-24T23:27:34.389Z,13.11
2023-12-24T23:30:00.982Z,13.00
2023-12-24T23:32:27.618Z,13.05
2023-12-24T23:34:54.225Z,13.07
2023-12-24T23:37:20.728Z,13.06
2023-12-24T23:39:47.330Z,12.98
2023-12-24T23:42:13.798Z,12.98
2023-12-24T23:44:40.247Z,13.00
2023-12-24T23:47:07.544Z,13.00
2023-12-24T23:49:34.146Z,12.93
2023-12-24T23:52:00.612Z,12.99
2023-12-24T23:54:27.092Z,12.94
2023-12-24T23:56:53.675Z,13.00
2023-12-24T23:59:22.943Z,13.02
